createdAt,value
2023-03-11T00:01:53.149Z,98220.02
2023-03-11T00:04:21.521Z,98218.15
2023-03-11T00:06:49.832Z,98216.52
2023-03-11T00:09:19.678Z,98205.79
2023-03-11T00:11:47.778Z,98205.52
2023-03-11T00:14:17.198Z,98202.58
2023-03-11T00:16:45.341Z,98191.23
2023-03-11T00:19:16.382Z,98191.45
2023-03-11T00:21:45.499Z,98190.56
2023-03-11T00:24:13.539Z,98185.36
2023-03-11T00:26:42.926Z,98189.08
2023-03-11T00:29:11.024Z,98184.64
2023-03-11T00:31:39.553Z,98181.92
2023-03-11T00:34:21.707Z,98176.23
2023-03-11T00:36:51.852Z,98174.39
2023-03-11T00:39:20.156Z,98171.02
2023-03-11T00:41:50.954Z,98164.17
2023-03-11T00:44:19.102Z,98162.01
2023-03-11T00:46:47.089Z,98158.86
2023-03-11T00:49:15.673Z,98157.08
2023-03-11T00:51:44.748Z,98159.23
2023-03-11T00:54:15.307Z,98152.59
2023-03-11T00:56:43.361Z,98145.66
2023-03-11T00:59:13.467Z,98138.39
2023-03-11T01:01:44.371Z,98133.86
2023-03-11T01:04:14.165Z,98127.16
2023-03-11T01:06:45.754Z,98127.17
2023-03-11T01:09:14.544Z,98124.41
2023-03-11T01:11:45.785Z,98116.89
2023-03-11T01:14:15.774Z,98117.23
2023-03-11T01:16:47.312Z,98111.93
2023-03-11T01:19:18.458Z,98111.39
2023-03-11T01:21:47.851Z,98105.33
2023-03-11T01:24:16.319Z,98103.75
2023-03-11T01:26:50.245Z,98099.71
2023-03-11T01:29:19.381Z,98099.89
2023-03-11T01:31:47.813Z,98094.27
2023-03-11T01:34:16.771Z,98094.02
2023-03-11T01:36:49.122Z,98093.27
2023-03-11T01:39:18.795Z,98092.25
2023-03-11T01:41:46.819Z,98090.30
2023-03-11T01:44:15.711Z,98086.38
2023-03-11T01:46:53.553Z,98088.01
2023-03-11T01:49:29.869Z,98081.27
2023-03-11T01:52:06.086Z,98082.89
2023-03-11T01:54:37.789Z,98088.67
2023-03-11T01:57:08.343Z,98081.92
2023-03-11T01:59:41.115Z,98081.08
2023-03-11T02:02:38.927Z,98081.44
2023-03-11T02:05:10.223Z,98070.42
2023-03-11T02:07:40.549Z,98067.52
2023-03-11T02:10:15.434Z,98065.24
2023-03-11T02:12:52.354Z,98060.11
2023-03-11T02:15:26.634Z,98057.74
2023-03-11T02:17:56.785Z,98060.11
2023-03-11T02:20:49.367Z,98057.01
2023-03-11T02:23:26.439Z,98058.35
2023-03-11T02:26:02.685Z,98054.05
2023-03-11T02:28:34.613Z,98057.27
2023-03-11T02:31:03.780Z,98058.34
2023-03-11T02:33:32.891Z,98056.96
2023-03-11T02:36:07.488Z,98057.41
2023-03-11T02:38:37.272Z,98056.29
2023-03-11T02:41:05.919Z,98051.73
2023-03-11T02:43:42.693Z,98044.52
2023-03-11T02:46:11.126Z,98046.92
2023-03-11T02:48:40.033Z,98042.59
2023-03-11T02:51:08.098Z,98041.42
2023-03-11T02:53:46.974Z,98039.52
2023-03-11T02:56:16.038Z,98039.02
2023-03-11T02:58:44.338Z,98035.83
2023-03-11T03:01:13.099Z,98028.31
2023-03-11T03:03:42.946Z,98023.20
2023-03-11T03:06:13.006Z,98022.88
2023-03-11T03:08:42.536Z,98023.08
2023-03-11T03:11:10.623Z,98018.14
2023-03-11T03:13:38.797Z,98013.66
2023-03-11T03:16:07.099Z,98009.90
2023-03-11T03:18:35.313Z,98013.28
2023-03-11T03:21:04.617Z,98007.65
2023-03-11T03:23:35.410Z,98012.03
2023-03-11T03:26:06.860Z,98004.60
2023-03-11T03:28:38.636Z,98000.29
2023-03-11T03:31:08.056Z,97993.64
2023-03-11T03:33:37.864Z,97993.88
2023-03-11T03:36:09.024Z,97987.48
2023-03-11T03:38:42.578Z,97988.59
2023-03-11T03:41:13.902Z,97980.75
2023-03-11T03:43:42.497Z,97973.25
2023-03-11T03:46:11.524Z,97967.41
2023-03-11T03:48:43.070Z,97966.99
2023-03-11T03:51:12.315Z,97958.09
2023-03-11T03:53:43.902Z,97956.58
2023-03-11T03:56:17.476Z,97950.45
2023-03-11T03:58:46.029Z,97951.09
2023-03-11T04:01:14.503Z,97940.82
2023-03-11T04:03:43.695Z,97935.55
2023-03-11T04:06:26.986Z,97934.34
2023-03-11T04:09:07.637Z,97931.22
2023-03-11T04:11:38.953Z,97926.47
2023-03-11T04:14:08.345Z,97922.88
2023-03-11T04:16:40.820Z,97921.47
2023-03-11T04:20:24.207Z,97915.39
2023-03-11T04:22:54.299Z,97903.06
2023-03-11T04:25:24.211Z,97898.77
2023-03-11T04:27:52.966Z,97895.27
2023-03-11T04:30:21.765Z,97892.31
2023-03-11T04:32:55.882Z,97885.11
2023-03-11T04:35:28.373Z,97881.84
2023-03-11T04:37:56.921Z,97890.70
2023-03-11T04:40:25.616Z,97888.84
2023-03-11T04:42:54.617Z,97882.75
2023-03-11T04:45:23.121Z,97879.16
2023-03-11T04:47:51.922Z,97881.67
2023-03-11T04:50:20.394Z,97881.08
2023-03-11T04:52:48.804Z,97874.49
2023-03-11T04:55:16.989Z,97875.29
2023-03-11T04:57:45.238Z,97864.27
2023-03-11T05:00:15.956Z,97858.21
2023-03-11T05:02:48.095Z,97852.96
2023-03-11T05:05:17.447Z,97853.22
2023-03-11T05:07:49.766Z,97847.84
2023-03-11T05:10:22.723Z,97849.29
2023-03-11T05:12:55.284Z,97842.27
2023-03-11T05:15:25.663Z,97835.59
2023-03-11T05:17:55.125Z,97834.69
2023-03-11T05:20:23.846Z,97828.98
2023-03-11T05:22:52.631Z,97827.52
2023-03-11T05:25:21.022Z,97823.33
2023-03-11T05:27:50.994Z,97818.39
2023-03-11T05:30:20.340Z,97813.17
2023-03-11T05:32:49.301Z,97815.79
2023-03-11T05:35:18.999Z,97810.00
2023-03-11T05:37:49.873Z,97811.08
2023-03-11T05:40:20.880Z,97803.42
2023-03-11T05:42:49.317Z,97808.86
2023-03-11T05:45:18.351Z,97798.45
2023-03-11T05:47:48.331Z,97799.20
2023-03-11T05:50:17.162Z,97799.09
2023-03-11T05:52:46.086Z,97801.14
2023-03-11T05:55:14.432Z,97804.30
2023-03-11T05:57:46.908Z,97796.23
2023-03-11T06:00:16.005Z,97799.08
2023-03-11T06:02:53.013Z,97792.09
2023-03-11T06:05:22.264Z,97792.34
2023-03-11T06:07:50.953Z,97790.36
2023-03-11T06:10:19.268Z,97790.09
2023-03-11T06:12:47.787Z,97789.75
2023-03-11T06:15:26.825Z,97789.95
2023-03-11T06:17:55.322Z,97785.19
2023-03-11T06:20:28.658Z,97782.16
2023-03-11T06:22:56.990Z,97783.08
2023-03-11T06:25:25.063Z,97780.63
2023-03-11T06:27:53.744Z,97785.88
2023-03-11T06:30:24.235Z,97778.41
2023-03-11T06:33:15.727Z,97780.54
2023-03-11T06:35:44.622Z,97774.71
2023-03-11T06:38:14.406Z,97770.56
2023-03-11T06:40:45.191Z,97768.54
2023-03-11T06:43:13.419Z,97764.63
2023-03-11T06:45:44.664Z,97756.81
2023-03-11T06:48:13.352Z,97754.69
2023-03-11T06:50:41.846Z,97749.38
2023-03-11T06:53:11.075Z,97746.27
2023-03-11T06:55:39.633Z,97744.27
2023-03-11T06:58:07.905Z,97734.04
2023-03-11T07:00:35.965Z,97728.80
2023-03-11T07:03:05.254Z,97723.13
2023-03-11T07:05:33.644Z,97712.50
2023-03-11T07:08:05.549Z,97706.52
2023-03-11T07:10:40.986Z,97704.42
2023-03-11T07:13:09.737Z,97701.83
2023-03-11T07:15:38.253Z,97699.79
2023-03-11T07:18:07.468Z,97694.45
2023-03-11T07:20:35.591Z,97698.10
2023-03-11T07:23:03.606Z,97697.68
2023-03-11T07:25:33.395Z,97701.66
2023-03-11T07:28:01.597Z,97703.35
2023-03-11T07:30:30.332Z,97702.61
2023-03-11T07:33:00.475Z,97696.31
2023-03-11T07:35:28.780Z,97690.37
2023-03-11T07:38:01.237Z,97686.18
2023-03-11T07:40:29.729Z,97683.00
2023-03-11T07:42:59.284Z,97682.65
2023-03-11T07:45:27.736Z,97676.89
2023-03-11T07:47:56.902Z,97671.17
2023-03-11T07:50:26.192Z,97661.98
2023-03-11T07:52:55.435Z,97655.36
2023-03-11T07:55:27.262Z,97647.79
2023-03-11T07:57:55.527Z,97638.95
2023-03-11T08:00:23.622Z,97632.08
2023-03-11T08:02:52.406Z,97627.74
2023-03-11T08:05:21.038Z,97618.41
2023-03-11T08:07:53.055Z,97615.16
2023-03-11T08:10:21.837Z,97616.77
2023-03-11T08:12:52.712Z,97612.17
2023-03-11T08:15:20.980Z,97606.02
2023-03-11T08:17:52.129Z,97602.90
2023-03-11T08:20:20.662Z,97597.71
2023-03-11T08:22:58.053Z,97587.34
2023-03-11T08:25:28.550Z,97580.77
2023-03-11T08:27:56.654Z,97573.27
2023-03-11T08:30:24.926Z,97573.81
2023-03-11T08:33:05.196Z,97569.16
2023-03-11T08:35:34.009Z,97574.98
2023-03-11T08:38:03.520Z,97574.54
2023-03-11T08:40:31.585Z,97570.70
2023-03-11T08:43:00.275Z,97565.77
2023-03-11T08:45:28.425Z,97560.59
2023-03-11T08:47:56.594Z,97556.27
2023-03-11T08:50:24.911Z,97551.20
2023-03-11T08:52:53.014Z,97556.00
2023-03-11T08:55:26.041Z,97569.05
2023-03-11T08:57:54.927Z,97558.24
2023-03-11T09:00:23.982Z,97557.45
2023-03-11T09:02:52.304Z,97564.48
2023-03-11T09:05:20.613Z,97552.99
2023-03-11T09:07:50.897Z,97554.19
2023-03-11T09:10:19.189Z,97548.36
2023-03-11T09:12:48.549Z,97544.32
2023-03-11T09:15:17.774Z,97533.20
2023-03-11T09:17:48.638Z,97522.02
2023-03-11T09:20:22.328Z,97517.80
2023-03-11T09:22:50.383Z,97521.89
2023-03-11T09:25:18.313Z,97517.08
2023-03-11T09:27:47.006Z,97512.09
2023-03-11T09:30:15.357Z,97505.75
2023-03-11T09:32:44.433Z,97500.77
2023-03-11T09:35:13.475Z,97501.08
2023-03-11T09:37:43.491Z,97495.07
2023-03-11T09:40:16.806Z,97486.20
2023-03-11T09:43:04.946Z,97484.98
2023-03-11T09:45:35.853Z,97472.73
2023-03-11T09:48:18.418Z,97470.11
2023-03-11T09:50:49.145Z,97467.92
2023-03-11T09:53:36.824Z,97461.48
2023-03-11T09:56:07.342Z,97448.09
2023-03-11T09:58:55.441Z,97442.31
2023-03-11T10:01:53.244Z,97443.14
2023-03-11T10:04:50.239Z,97433.06
2023-03-11T10:07:27.560Z,97425.71
2023-03-11T10:10:02.482Z,97420.39
2023-03-11T10:12:49.073Z,97410.00
2023-03-11T10:15:39.472Z,97404.45
2023-03-11T10:18:49.012Z,97390.95
2023-03-11T10:24:33.500Z,97402.33
2023-03-11T10:27:03.690Z,97398.29
2023-03-11T10:30:09.194Z,97392.66
2023-03-11T10:32:42.540Z,97388.61
2023-03-11T10:35:17.369Z,97383.19
2023-03-11T10:37:53.204Z,97383.55
2023-03-11T10:40:33.498Z,97387.20
2023-03-11T10:43:09.959Z,97382.34
2023-03-11T10:45:43.958Z,97372.75
2023-03-11T10:48:13.549Z,97361.57
2023-03-11T10:50:48.215Z,97358.83
2023-03-11T10:53:18.640Z,97353.45
2023-03-11T10:55:51.726Z,97345.73
2023-03-11T10:58:33.896Z,97345.31
2023-03-11T11:01:04.199Z,97340.52
2023-03-11T11:03:32.337Z,97336.41
2023-03-11T11:06:06.540Z,97332.19
2023-03-11T11:08:36.049Z,97322.13
2023-03-11T11:11:20.377Z,97315.52
2023-03-11T11:14:00.687Z,97306.18
2023-03-11T11:16:29.253Z,97307.05
2023-03-11T11:19:11.996Z,97301.27
2023-03-11T11:21:44.101Z,97296.00
2023-03-11T11:24:21.065Z,97288.35
2023-03-11T11:27:11.468Z,97280.70
2023-03-11T11:29:40.178Z,97279.09
2023-03-11T11:32:24.081Z,97274.67
2023-03-11T11:35:00.690Z,97270.86
2023-03-11T11:37:35.484Z,97268.02
2023-03-11T11:40:12.190Z,97266.55
2023-03-11T11:42:42.419Z,97263.17
2023-03-11T11:45:15.560Z,97256.79
2023-03-11T11:47:48.993Z,97259.05
2023-03-11T11:50:35.664Z,97256.98
2023-03-11T11:53:24.079Z,97255.17
2023-03-11T11:55:54.365Z,97248.77
2023-03-11T11:58:23.234Z,97247.02
2023-03-11T12:01:16.696Z,97242.48
2023-03-11T12:04:21.098Z,97235.70
2023-03-11T12:07:09.479Z,97239.81
2023-03-11T12:10:22.237Z,97239.80
2023-03-11T12:13:17.645Z,97242.41
2023-03-11T12:15:58.531Z,97237.99
2023-03-11T12:18:37.814Z,97240.84
2023-03-11T12:21:23.908Z,97230.58
2023-03-11T12:24:23.724Z,97236.00
2023-03-11T12:26:52.557Z,97229.60
2023-03-11T12:29:35.489Z,97234.19
2023-03-11T12:32:05.171Z,97231.48
2023-03-11T12:34:34.560Z,97228.55
2023-03-11T12:37:03.732Z,97226.84
2023-03-11T12:39:36.751Z,97223.73
2023-03-11T12:42:11.003Z,97220.16
2023-03-11T12:44:41.424Z,97219.10
2023-03-11T12:47:24.231Z,97213.92
2023-03-11T12:49:57.374Z,97210.23
2023-03-11T12:52:27.768Z,97212.68
2023-03-11T12:54:56.895Z,97206.42
2023-03-11T12:58:02.178Z,97203.09
2023-03-11T13:01:18.696Z,97197.59
2023-03-11T13:03:56.912Z,97190.61
2023-03-11T13:07:07.814Z,97190.77
2023-03-11T13:09:36.144Z,97189.50
2023-03-11T13:12:23.942Z,97190.67
2023-03-11T13:15:18.823Z,97189.23
2023-03-11T13:18:16.386Z,97187.15
2023-03-11T13:20:49.326Z,97177.77
2023-03-11T13:23:23.277Z,97180.09
2023-03-11T13:25:51.787Z,97176.84
2023-03-11T13:28:36.993Z,97173.73
2023-03-11T13:31:14.915Z,97173.86
2023-03-11T13:34:14.081Z,97166.98
2023-03-11T13:36:56.605Z,97166.01
2023-03-11T13:40:04.291Z,97165.84
2023-03-11T13:42:43.722Z,97160.77
2023-03-11T13:45:22.658Z,97159.10
2023-03-11T13:47:53.830Z,97155.16
2023-03-11T13:50:28.380Z,97154.40
2023-03-11T13:52:57.643Z,97146.84
2023-03-11T13:58:24.645Z,97137.64
2023-03-11T14:01:02.462Z,97133.69
2023-03-11T14:03:37.628Z,97134.95
2023-03-11T14:06:15.689Z,97130.33
2023-03-11T14:08:55.892Z,97127.30
2023-03-11T14:11:29.380Z,97125.85
2023-03-11T14:14:02.639Z,97123.53
2023-03-11T14:16:44.754Z,97123.48
2023-03-11T14:19:17.674Z,97121.60
2023-03-11T14:21:51.415Z,97120.48
2023-03-11T14:24:25.764Z,97123.16
2023-03-11T14:26:57.228Z,97123.36
2023-03-11T14:29:32.850Z,97119.98
2023-03-11T14:32:32.326Z,97123.82
2023-03-11T14:35:01.181Z,97120.13
2023-03-11T14:37:32.897Z,97118.19
2023-03-11T14:40:01.206Z,97120.95
2023-03-11T14:42:39.072Z,97123.95
2023-03-11T14:45:18.952Z,97118.80
2023-03-11T14:48:04.094Z,97120.55
2023-03-11T14:50:35.967Z,97120.58
2023-03-11T14:53:25.712Z,97122.13
2023-03-11T14:56:02.133Z,97118.70
2023-03-11T14:58:40.083Z,97121.52
2023-03-11T15:01:18.260Z,97118.14
2023-03-11T15:04:09.147Z,97110.73
2023-03-11T15:06:38.936Z,97113.61
2023-03-11T15:09:14.019Z,97112.09
2023-03-11T15:11:55.674Z,97110.94
2023-03-11T15:14:33.149Z,97110.45
2023-03-11T15:17:34.005Z,97108.11
2023-03-11T15:20:22.477Z,97110.17
2023-03-11T15:23:04.154Z,97104.15
2023-03-11T15:25:35.172Z,97103.97
2023-03-11T15:28:26.153Z,97101.79
2023-03-11T15:31:22.142Z,97100.98
2023-03-11T15:33:53.880Z,97102.80
2023-03-11T15:36:41.476Z,97113.55
2023-03-11T15:39:25.216Z,97108.25
2023-03-11T15:42:09.577Z,97112.04
2023-03-11T15:44:43.919Z,97116.65
2023-03-11T15:47:18.430Z,97119.66
2023-03-11T15:49:46.599Z,97125.69
2023-03-11T15:52:15.181Z,97124.66
2023-03-11T15:54:54.695Z,97122.70
2023-03-11T15:57:26.646Z,97129.02
2023-03-11T15:59:56.126Z,97130.02
2023-03-11T16:02:28.546Z,97126.13
2023-03-11T16:04:59.545Z,97124.35
2023-03-11T16:07:39.207Z,97126.94
2023-03-11T16:10:09.144Z,97129.91
2023-03-11T16:12:44.996Z,97126.52
2023-03-11T16:15:26.584Z,97121.73
2023-03-11T16:18:00.188Z,97123.22
2023-03-11T16:20:48.267Z,97125.41
2023-03-11T16:23:26.937Z,97116.85
2023-03-11T16:25:58.340Z,97116.88
2023-03-11T16:28:27.733Z,97115.98
2023-03-11T16:30:56.109Z,97118.83
2023-03-11T16:33:25.178Z,97119.60
2023-03-11T16:38:25.848Z,97119.19
2023-03-11T16:40:57.742Z,97120.05
2023-03-11T16:43:28.155Z,97119.57
2023-03-11T16:45:56.642Z,97121.54
2023-03-11T16:48:24.765Z,97124.73
2023-03-11T16:50:53.657Z,97121.60
2023-03-11T16:53:22.271Z,97125.93
2023-03-11T16:55:53.200Z,97125.89
2023-03-11T16:58:21.460Z,97121.69
2023-03-11T17:00:49.639Z,97118.48
2023-03-11T17:03:21.512Z,97119.67
2023-03-11T17:05:51.390Z,97120.43
2023-03-11T17:08:25.296Z,97122.71
2023-03-11T17:10:55.137Z,97118.56
2023-03-11T17:13:23.200Z,97125.10
2023-03-11T17:15:59.359Z,97123.52
2023-03-11T17:18:42.960Z,97117.94
2023-03-11T17:21:12.942Z,97116.66
2023-03-11T17:23:41.283Z,97114.86
2023-03-11T17:26:14.635Z,97119.20
2023-03-11T17:28:43.507Z,97115.95
2023-03-11T17:31:13.192Z,97111.93
2023-03-11T17:33:44.675Z,97107.20
2023-03-11T17:36:14.386Z,97101.64
2023-03-11T17:38:46.569Z,97100.98
2023-03-11T17:41:16.278Z,97102.32
2023-03-11T17:43:44.605Z,97108.48
2023-03-11T17:46:15.520Z,97113.34
2023-03-11T17:48:45.186Z,97110.26
2023-03-11T17:51:22.014Z,97109.06
2023-03-11T17:53:50.134Z,97112.98
2023-03-11T17:56:21.659Z,97114.04
2023-03-11T17:58:50.078Z,97111.44
2023-03-11T18:01:23.500Z,97106.83
2023-03-11T18:03:51.874Z,97104.12
2023-03-11T18:06:20.072Z,97089.21
2023-03-11T18:08:48.115Z,97076.28
2023-03-11T18:11:20.676Z,97074.85
2023-03-11T18:13:48.870Z,97073.23
2023-03-11T18:16:19.584Z,97065.69
2023-03-11T18:18:52.484Z,97069.66
2023-03-11T18:21:29.023Z,97072.60
2023-03-11T18:24:01.853Z,97064.54
2023-03-11T18:26:31.528Z,97061.90
2023-03-11T18:30:19.191Z,97066.98
2023-03-11T18:33:01.352Z,97069.25
2023-03-11T18:35:28.873Z,97073.63
2023-03-11T18:37:58.533Z,97077.33
2023-03-11T18:40:27.416Z,97085.27
2023-03-11T18:42:54.080Z,97084.43
2023-03-11T18:45:21.805Z,97085.55
2023-03-11T18:47:49.362Z,97088.17
2023-03-11T18:50:17.001Z,97082.26
2023-03-11T18:52:43.937Z,97078.61
2023-03-11T18:55:10.623Z,97080.67
2023-03-11T18:57:41.089Z,97081.32
2023-03-11T19:00:08.711Z,97082.05
2023-03-11T19:02:36.395Z,97085.30
2023-03-11T19:05:03.846Z,97084.98
2023-03-11T19:07:30.734Z,97082.35
2023-03-11T19:09:58.933Z,97094.55
2023-03-11T19:12:29.152Z,97094.77
2023-03-11T19:14:56.965Z,97099.02
2023-03-11T19:17:23.836Z,97100.90
2023-03-11T19:19:51.916Z,97096.85
2023-03-11T19:22:18.933Z,97098.20
2023-03-11T19:24:56.102Z,97098.16
2023-03-11T19:27:23.823Z,97100.39
2023-03-11T19:29:50.922Z,97097.67
2023-03-11T19:32:19.100Z,97087.70
2023-03-11T19:34:45.886Z,97083.48
2023-03-11T19:37:12.630Z,97077.10
2023-03-11T19:39:39.677Z,97077.42
2023-03-11T19:42:06.635Z,97076.52
2023-03-11T19:44:34.244Z,97080.93
2023-03-11T19:47:00.981Z,97085.98
2023-03-11T19:49:27.982Z,97083.02
2023-03-11T19:51:56.923Z,97085.34
2023-03-11T19:54:23.875Z,97085.89
2023-03-11T19:56:50.961Z,97083.28
2023-03-11T19:59:18.550Z,97086.46
2023-03-11T20:01:45.282Z,97089.23
2023-03-11T20:04:14.350Z,97087.27
2023-03-11T20:06:41.208Z,97086.71
2023-03-11T20:09:15.547Z,97092.32
2023-03-11T20:11:42.635Z,97096.70
2023-03-11T20:14:11.068Z,97100.40
2023-03-11T20:16:37.896Z,97099.32
2023-03-11T20:19:04.846Z,97096.67
2023-03-11T20:21:32.474Z,97094.27
2023-03-11T20:23:59.541Z,97096.98
2023-03-11T20:26:27.032Z,97099.04
2023-03-11T20:28:56.854Z,97098.13
2023-03-11T20:31:25.674Z,97104.63
2023-03-11T20:33:52.594Z,97107.69
2023-03-11T20:36:24.761Z,97102.31
2023-03-11T20:38:52.426Z,97102.06
2023-03-11T20:41:19.252Z,97099.25
2023-03-11T20:43:46.360Z,97093.73
2023-03-11T20:46:16.233Z,97097.41
2023-03-11T20:48:46.435Z,97096.63
2023-03-11T20:51:15.996Z,97094.48
2023-03-11T20:53:46.521Z,97091.17
2023-03-11T20:56:15.517Z,97087.75
2023-03-11T20:58:43.079Z,97091.80
2023-03-11T21:01:15.687Z,97087.03
2023-03-11T21:03:43.368Z,97092.00
2023-03-11T21:06:15.032Z,97095.50
2023-03-11T21:08:41.728Z,97100.59
2023-03-11T21:11:08.442Z,97104.89
2023-03-11T21:13:35.437Z,97094.86
2023-03-11T21:16:04.723Z,97093.35
2023-03-11T21:18:33.194Z,97092.21
2023-03-11T21:20:59.931Z,97086.33
2023-03-11T21:23:29.492Z,97092.52
2023-03-11T21:25:58.387Z,97097.42
2023-03-11T21:28:26.303Z,97098.60
2023-03-11T21:31:14.343Z,97101.67
2023-03-11T21:33:41.479Z,97099.61
2023-03-11T21:36:12.107Z,97099.80
2023-03-11T21:38:40.035Z,97099.81
2023-03-11T21:41:10.206Z,97095.06
2023-03-11T21:43:37.941Z,97096.28
2023-03-11T21:46:05.122Z,97099.75
2023-03-11T21:48:32.468Z,97106.75
2023-03-11T21:50:59.323Z,97112.80
2023-03-11T21:53:26.322Z,97118.15
2023-03-11T21:55:53.122Z,97122.61
2023-03-11T21:58:19.824Z,97124.52
2023-03-11T22:00:47.078Z,97124.26
2023-03-11T22:03:13.985Z,97127.77
2023-03-11T22:05:41.728Z,97123.74
2023-03-11T22:08:13.955Z,97123.44
2023-03-11T22:10:43.872Z,97129.16
2023-03-11T22:13:14.200Z,97133.66
2023-03-11T22:15:42.433Z,97137.77
2023-03-11T22:18:10.131Z,97136.50
2023-03-11T22:20:37.654Z,97135.11
2023-03-11T22:23:04.519Z,97136.08
2023-03-11T22:25:33.443Z,97133.91
2023-03-11T22:28:00.520Z,97133.27
2023-03-11T22:30:27.249Z,97142.06
2023-03-11T22:32:56.238Z,97143.81
2023-03-11T22:35:24.734Z,97148.67
2023-03-11T22:37:51.546Z,97148.70
2023-03-11T22:40:18.476Z,97151.36
2023-03-11T22:42:45.421Z,97153.70
2023-03-11T22:45:14.909Z,97161.21
2023-03-11T22:47:42.560Z,97166.82
2023-03-11T22:50:09.834Z,97175.27
2023-03-11T22:52:37.645Z,97175.52
2023-03-11T22:55:04.805Z,97185.77
2023-03-11T22:57:38.267Z,97185.00
2023-03-11T23:00:21.256Z,97191.70
2023-03-11T23:02:52.243Z,97194.75
2023-03-11T23:05:19.855Z,97197.06
2023-03-11T23:07:48.966Z,97196.52
2023-03-11T23:10:21.568Z,97199.84
2023-03-11T23:12:49.002Z,97201.91
2023-03-11T23:15:18.909Z,97197.58
2023-03-11T23:17:47.253Z,97194.02
2023-03-11T23:20:14.564Z,97196.86
2023-03-11T23:22:41.504Z,97200.83
2023-03-11T23:25:14.367Z,97199.69
2023-03-11T23:27:42.386Z,97198.48
2023-03-11T23:30:10.725Z,97196.13
2023-03-11T23:32:37.802Z,97190.48
2023-03-11T23:35:05.891Z,97193.66
2023-03-11T23:37:32.637Z,97198.20
2023-03-11T23:39:59.542Z,97204.87
2023-03-11T23:42:26.575Z,97204.96
2023-03-11T23:44:56.811Z,97211.77
2023-03-11T23:47:25.735Z,97215.28
2023-03-11T23:49:52.651Z,97224.39
2023-03-11T23:52:19.974Z,97222.12
2023-03-11T23:54:47.052Z,97215.98
2023-03-11T23:57:13.640Z,97217.30
2023-03-11T23:59:42.788Z,97216.25
